Notre Dame, Indiana
Current Conditions -  °F | °C
As of 7:54 PM on Friday 28 Nov 2014 (Local Time) from KSBN Reporting Station
Clear Clear  
Wind Chill: 20°   Ceiling: Unl
Heat Index: 30°   Visibility: 10mi
Dew Point: 21°   Wind: 14mph
Humidity: 69%   Direction: 170°S
Pressure: 30.05"   Gusts: NA
Location:  41.72°N, 86.25°W
Report Text: KSBN 290054Z 17012KT 10SM CLR M01/M06 A3005 RMK AO2 SLP186 T10111061
Loading
Personal Weather Stations






























Interactive Weather Map New forecast layout! Learn more

10-Day Weather Forecast

Advertisements
Track Severe Weather on mobile